Date,TemperatureHighF,TemperatureAvgF,TemperatureLowF,DewpointHighF,DewpointAvgF,DewpointLowF,HumidityHigh,HumidityAvg,HumidityLow,PressureMaxIn,PressureMinIn,WindSpeedMaxMPH,WindSpeedAvgMPH,GustSpeedMaxMPH,PrecipitationSumIn
2013-1-1,33.4,23.1,10.0,30.0,18.7,7.0,93,83,72,29.95,29.75,15,7,24,0.00
2013-1-2,25.3,19.3,11.8,21.0,14.9,7.0,93,83,72,30.15,29.91,14,6,23,0.00
2013-1-3,28.5,22.2,12.0,25.0,18.6,8.0,91,85,76,30.14,29.93,19,4,19,0.00
2013-1-4,33.9,30.9,28.3,26.0,23.2,20.0,89,74,61,29.93,29.81,22,11,27,0.01
2013-1-5,33.7,31.1,26.3,27.0,24.7,21.0,83,77,67,30.21,29.94,19,6,27,0.01
2013-1-6,37.5,34.0,30.1,33.0,28.7,24.0,94,81,72,30.03,29.82,14,4,21,0.02
2013-1-7,35.0,28.6,25.4,33.0,25.1,21.0,95,86,72,30.30,29.96,14,4,21,0.00
2013-1-8,40.8,32.4,27.2,27.0,23.6,22.0,82,71,58,30.25,30.14,9,1,12,0.00
2013-1-9,48.5,37.2,27.6,36.0,27.7,21.0,81,69,51,30.24,29.92,20,6,35,0.00
2013-1-10,38.7,34.8,31.3,30.0,28.2,27.0,84,77,67,30.48,30.23,14,6,24,0.00
2013-1-11,39.5,36.5,31.1,37.0,31.0,26.0,91,80,68,30.38,29.90,13,3,16,0.14
2013-1-12,52.9,44.7,39.1,48.0,42.8,37.0,97,93,84,29.98,29.93,6,1,13,0.00
2013-1-13,57.3,50.8,44.9,53.0,48.4,44.0,97,91,83,29.94,29.73,10,2,22,0.00
2013-1-14,54.1,38.7,29.2,51.0,33.3,23.0,93,81,67,30.27,29.68,21,7,30,0.01
2013-1-15,34.0,29.5,27.2,24.0,23.0,21.0,83,77,62,30.30,30.11,7,3,12,0.00
2013-1-16,34.3,31.0,28.3,30.0,27.3,23.0,94,87,73,30.10,29.71,11,2,18,0.04
2013-1-17,34.2,26.3,18.5,30.0,21.4,14.0,93,82,72,30.08,29.79,20,7,25,0.00
2013-1-18,28.7,19.9,13.9,16.0,11.9,6.0,91,73,52,30.34,30.04,19,6,24,0.00
2013-1-19,47.1,39.5,29.5,29.0,21.7,15.0,55,49,45,30.05,29.59,12,4,18,0.00
2013-1-20,45.3,32.2,20.6,34.0,20.4,11.0,87,63,50,29.96,29.40,29,14,39,0.01
2013-1-21,23.9,19.4,13.9,19.0,12.7,7.0,93,76,59,29.96,29.76,16,5,20,0.00
2013-1-22,15.1,10.1,6.9,9.0,0.2,-3.0,75,65,54,30.10,29.80,21,12,32,0.00
2013-1-23,13.5,7.2,4.1,6.0,1.1,-3.0,88,76,66,30.14,30.06,13,4,18,0.00
2013-1-24,13.4,8.8,2.4,8.0,3.7,-1.0,90,79,67,30.44,30.05,16,7,27,0.00
2013-1-25,18.1,13.3,9.3,12.0,9.4,6.0,90,84,70,30.40,30.00,11,3,20,0.00
2013-1-26,18.6,13.0,6.3,14.0,9.7,4.0,92,87,76,30.32,30.01,6,1,8,0.02
2013-1-27,29.0,19.7,12.8,18.0,15.3,11.0,93,83,64,30.48,30.32,7,2,10,0.02
2013-1-28,39.7,30.8,22.4,40.0,27.4,14.0,99,88,69,30.34,29.83,7,2,14,0.15
2013-1-29,50.1,42.0,35.2,49.0,41.4,35.0,100,97,94,29.98,29.76,12,2,18,0.27
2013-1-30,59.3,53.8,49.4,55.0,51.1,48.0,97,91,85,29.73,29.00,12,4,19,0.20
2013-1-31,53.0,32.8,20.2,52.0,26.6,16.0,98,78,61,29.61,28.91,28,15,42,0.25